Time,TemperatureF,DewpointF,PressureIn,WindDirection,WindDirectionDegrees,WindSpeedMPH,WindSpeedGustMPH,Humidity,HourlyPrecipIn,Conditions,Clouds,dailyrainin,SoftwareType,DateUTC
2013-06-26 00:12:00,69.0,66.0,29.88,West,274,6.0,16.0,91,0.00,,,0.00,,2013-06-26 04:12:00,
2013-06-26 00:22:00,69.0,67.0,29.87,WNW,300,2.0,11.0,92,0.00,,,0.00,,2013-06-26 04:22:00,
2013-06-26 00:33:00,69.0,67.0,29.87,WNW,300,2.0,11.0,92,0.00,,,0.00,,2013-06-26 04:33:00,
2013-06-26 00:43:00,69.0,67.0,29.85,NNE,19,5.0,9.0,93,0.04,,,0.04,,2013-06-26 04:43:00,
2013-06-26 00:53:00,69.0,67.0,29.85,NNE,19,5.0,9.0,93,0.04,,,0.04,,2013-06-26 04:53:00,
2013-06-26 01:02:00,68.0,67.0,29.85,NNE,24,0.0,2.0,95,0.06,,,0.06,,2013-06-26 05:02:00,
2013-06-26 01:11:00,68.0,67.0,29.85,NNE,24,0.0,2.0,95,0.06,,,0.06,,2013-06-26 05:11:00,
2013-06-26 01:22:00,68.0,67.0,29.85,NE,41,0.0,6.0,95,0.06,,,0.06,,2013-06-26 05:22:00,
2013-06-26 01:34:00,68.0,67.0,29.85,NE,49,1.0,2.0,95,0.02,,,0.06,,2013-06-26 05:34:00,
2013-06-26 01:43:00,69.0,68.0,29.86,North,9,2.0,5.0,95,0.02,,,0.07,,2013-06-26 05:43:00,
2013-06-26 01:52:00,69.0,68.0,29.86,North,9,2.0,5.0,95,0.02,,,0.07,,2013-06-26 05:52:00,
2013-06-26 02:02:00,69.0,68.0,29.85,NE,54,2.0,4.0,96,0.03,,,0.09,,2013-06-26 06:02:00,
2013-06-26 02:22:00,68.0,67.0,29.84,North,358,0.0,3.0,96,0.03,,,0.09,,2013-06-26 06:22:00,
2013-06-26 02:34:00,68.0,67.0,29.82,NNE,20,0.0,1.0,96,0.03,,,0.09,,2013-06-26 06:34:00,
2013-06-26 02:43:00,68.0,67.0,29.80,East,83,0.0,1.0,96,0.02,,,0.09,,2013-06-26 06:43:00,
2013-06-26 02:53:00,68.0,67.0,29.80,East,83,0.0,1.0,96,0.02,,,0.09,,2013-06-26 06:53:00,
2013-06-26 03:01:00,68.0,67.0,29.79,SSE,148,0.0,2.0,96,0.00,,,0.09,,2013-06-26 07:01:00,
2013-06-26 03:11:00,68.0,67.0,29.79,SSE,158,0.0,2.0,96,0.00,,,0.09,,2013-06-26 07:11:00,
2013-06-26 03:22:00,68.0,67.0,29.79,SSE,158,0.0,2.0,96,0.00,,,0.09,,2013-06-26 07:22:00,
2013-06-26 03:43:00,68.0,67.0,29.81,South,187,0.0,2.0,96,0.00,,,0.09,,2013-06-26 07:43:00,
2013-06-26 03:53:00,68.0,67.0,29.81,South,187,0.0,2.0,96,0.00,,,0.09,,2013-06-26 07:53:00,
2013-06-26 04:01:00,68.0,67.0,29.81,SW,229,1.0,2.0,97,0.01,,,0.10,,2013-06-26 08:01:00,
2013-06-26 04:22:00,68.0,67.0,29.81,SW,231,2.0,4.0,97,0.01,,,0.10,,2013-06-26 08:22:00,
2013-06-26 04:33:00,68.0,67.0,29.81,WSW,248,3.0,6.0,97,0.01,,,0.10,,2013-06-26 08:33:00,
2013-06-26 04:42:00,68.0,67.0,29.80,SSW,193,4.0,7.0,97,0.01,,,0.10,,2013-06-26 08:42:00,
2013-06-26 05:01:00,69.0,68.0,29.80,SSW,211,4.0,8.0,97,0.00,,,0.10,,2013-06-26 09:01:00,
2013-06-26 05:22:00,69.0,68.0,29.79,SW,218,6.0,13.0,97,0.00,,,0.10,,2013-06-26 09:22:00,
2013-06-26 05:43:00,69.0,68.0,29.79,SW,229,5.0,8.0,97,0.00,,,0.10,,2013-06-26 09:43:00,
2013-06-26 05:53:00,69.0,68.0,29.79,SW,229,5.0,8.0,97,0.00,,,0.10,,2013-06-26 09:53:00,
2013-06-26 06:01:00,69.0,68.0,29.79,South,179,3.0,7.0,97,0.00,,,0.10,,2013-06-26 10:01:00,
2013-06-26 06:12:00,69.0,68.0,29.79,South,179,3.0,7.0,97,0.00,,,0.10,,2013-06-26 10:12:00,
2013-06-26 06:22:00,69.0,68.0,29.79,SE,142,2.0,6.0,97,0.00,,,0.10,,2013-06-26 10:22:00,
2013-06-26 06:43:00,69.0,68.0,29.79,SSE,150,4.0,9.0,97,0.00,,,0.10,,2013-06-26 10:43:00,
2013-06-26 06:53:00,69.0,68.0,29.78,SSE,162,5.0,9.0,97,0.00,,,0.10,,2013-06-26 10:53:00,
2013-06-26 07:02:00,69.0,68.0,29.79,SSW,212,5.0,11.0,96,0.00,,,0.10,,2013-06-26 11:02:00,
2013-06-26 07:12:00,69.0,68.0,29.79,SSW,212,5.0,11.0,96,0.00,,,0.10,,2013-06-26 11:12:00,
2013-06-26 07:22:00,70.0,68.0,29.79,SSW,193,6.0,14.0,95,0.00,,,0.10,,2013-06-26 11:22:00,
2013-06-26 07:44:00,71.0,69.0,29.80,SW,232,5.0,11.0,93,0.00,,,0.10,,2013-06-26 11:44:00,
2013-06-26 07:52:00,71.0,69.0,29.80,SW,232,5.0,11.0,93,0.00,,,0.10,,2013-06-26 11:52:00,
2013-06-26 08:12:00,71.0,69.0,29.81,SSW,210,4.0,11.0,92,0.00,,,0.10,,2013-06-26 12:12:00,
2013-06-26 08:22:00,71.0,69.0,29.81,SSW,210,4.0,11.0,92,0.00,,,0.10,,2013-06-26 12:22:00,
2013-06-26 08:42:00,72.0,69.0,29.80,SW,224,4.0,10.0,90,0.00,,,0.10,,2013-06-26 12:42:00,
2013-06-26 08:52:00,72.0,69.0,29.80,SW,224,4.0,10.0,90,0.00,,,0.10,,2013-06-26 12:52:00,
2013-06-26 09:22:00,72.0,69.0,29.81,WSW,243,5.0,9.0,90,0.00,,,0.10,,2013-06-26 13:22:00,
2013-06-26 09:34:00,73.0,69.0,29.82,SW,219,8.0,12.0,88,0.00,,,0.10,,2013-06-26 13:34:00,
2013-06-26 09:43:00,73.0,69.0,29.82,SW,219,8.0,12.0,88,0.00,,,0.10,,2013-06-26 13:43:00,
2013-06-26 09:53:00,74.0,70.0,29.82,SW,225,10.0,14.0,87,0.00,,,0.10,,2013-06-26 13:53:00,
2013-06-26 10:02:00,74.0,70.0,29.82,WSW,246,6.0,13.0,87,0.00,,,0.10,,2013-06-26 14:02:00,
2013-06-26 10:24:00,74.0,70.0,29.81,SW,221,8.0,13.0,86,0.00,,,0.10,,2013-06-26 14:24:00,
2013-06-26 10:34:00,76.0,71.0,29.80,WSW,238,5.0,13.0,84,0.00,,,0.10,,2013-06-26 14:34:00,
2013-06-26 10:42:00,76.0,70.0,29.81,SW,217,6.0,13.0,81,0.00,,,0.10,,2013-06-26 14:42:00,
2013-06-26 10:53:00,76.0,70.0,29.81,SW,217,6.0,13.0,81,0.00,,,0.10,,2013-06-26 14:53:00,
2013-06-26 11:02:00,76.0,70.0,29.81,WSW,248,4.0,13.0,81,0.00,,,0.10,,2013-06-26 15:02:00,
2013-06-26 11:11:00,76.0,70.0,29.81,WSW,248,4.0,13.0,81,0.00,,,0.10,,2013-06-26 15:11:00,
2013-06-26 11:22:00,76.0,70.0,29.83,SW,224,6.0,13.0,82,0.00,,,0.10,,2013-06-26 15:22:00,
2013-06-26 11:34:00,76.0,70.0,29.83,West,273,3.0,9.0,81,0.00,,,0.10,,2013-06-26 15:34:00,
2013-06-26 11:44:00,76.0,69.0,29.85,NW,319,5.0,11.0,80,0.00,,,0.10,,2013-06-26 15:44:00,
2013-06-26 11:53:00,76.0,69.0,29.85,NW,319,5.0,11.0,80,0.00,,,0.10,,2013-06-26 15:53:00,
2013-06-26 12:22:00,73.0,68.0,29.84,NNW,339,3.0,10.0,84,0.00,,,0.10,,2013-06-26 16:22:00,
2013-06-26 12:34:00,72.0,68.0,29.84,West,263,5.0,9.0,86,0.00,,,0.10,,2013-06-26 16:34:00,
2013-06-26 12:52:00,71.0,68.0,29.81,NNW,345,0.0,5.0,89,0.02,,,0.12,,2013-06-26 16:52:00,
2013-06-26 13:11:00,71.0,69.0,29.78,ENE,76,4.0,7.0,92,0.05,,,0.15,,2013-06-26 17:11:00,
2013-06-26 13:23:00,71.0,69.0,29.78,South,191,4.0,7.0,92,0.05,,,0.15,,2013-06-26 17:23:00,
2013-06-26 13:43:00,73.0,70.0,29.78,SE,134,3.0,5.0,90,0.02,,,0.15,,2013-06-26 17:43:00,
2013-06-26 13:52:00,73.0,70.0,29.78,SE,134,3.0,5.0,90,0.02,,,0.15,,2013-06-26 17:52:00,
2013-06-26 14:22:00,76.0,72.0,29.78,SSE,165,3.0,4.0,86,0.00,,,0.15,,2013-06-26 18:22:00,
2013-06-26 14:34:00,80.0,73.0,29.78,South,180,5.0,11.0,80,0.00,,,0.15,,2013-06-26 18:34:00,
2013-06-26 14:43:00,82.0,74.0,29.76,SSE,158,7.0,13.0,78,0.00,,,0.15,,2013-06-26 18:43:00,
2013-06-26 14:52:00,82.0,74.0,29.76,SSE,158,7.0,13.0,78,0.00,,,0.15,,2013-06-26 18:52:00,
2013-06-26 15:11:00,82.0,73.0,29.75,South,170,5.0,12.0,75,0.00,,,0.15,,2013-06-26 19:11:00,
2013-06-26 15:22:00,82.0,73.0,29.75,South,170,5.0,12.0,75,0.00,,,0.15,,2013-06-26 19:22:00,
2013-06-26 15:33:00,84.0,74.0,29.74,SSE,150,6.0,11.0,71,0.00,,,0.15,,2013-06-26 19:33:00,
2013-06-26 15:52:00,84.0,74.0,29.74,SW,227,4.0,11.0,72,0.00,,,0.15,,2013-06-26 19:52:00,
2013-06-26 16:01:00,84.0,74.0,29.73,SSE,166,6.0,12.0,73,0.00,,,0.15,,2013-06-26 20:01:00,
2013-06-26 16:22:00,84.0,74.0,29.72,SW,221,4.0,10.0,72,0.00,,,0.15,,2013-06-26 20:22:00,
2013-06-26 16:34:00,85.0,74.0,29.72,South,188,4.0,12.0,69,0.00,,,0.15,,2013-06-26 20:34:00,
2013-06-26 16:43:00,85.0,74.0,29.72,SSW,203,4.0,8.0,70,0.00,,,0.15,,2013-06-26 20:43:00,
2013-06-26 16:52:00,85.0,74.0,29.72,SSW,203,4.0,8.0,70,0.00,,,0.15,,2013-06-26 20:52:00,
2013-06-26 17:23:00,86.0,75.0,29.70,South,187,4.0,9.0,69,0.00,,,0.15,,2013-06-26 21:23:00,
2013-06-26 17:33:00,85.0,76.0,29.70,South,182,3.0,8.0,74,0.00,,,0.15,,2013-06-26 21:33:00,
2013-06-26 17:43:00,85.0,75.0,29.69,SSE,163,6.0,12.0,71,0.00,,,0.15,,2013-06-26 21:43:00,
2013-06-26 17:52:00,85.0,75.0,29.69,SSE,163,6.0,12.0,71,0.00,,,0.15,,2013-06-26 21:52:00,
2013-06-26 18:11:00,81.0,69.0,29.69,SSE,160,5.0,10.0,66,0.00,,,0.15,,2013-06-26 22:11:00,
2013-06-26 18:22:00,80.0,68.0,29.69,South,187,4.0,10.0,68,0.00,,,0.15,,2013-06-26 22:22:00,
2013-06-26 18:43:00,80.0,71.0,29.70,South,183,10.0,16.0,75,0.00,,,0.15,,2013-06-26 22:43:00,
2013-06-26 18:52:00,80.0,71.0,29.70,South,183,10.0,16.0,75,0.00,,,0.15,,2013-06-26 22:52:00,
2013-06-26 19:02:00,78.0,69.0,29.69,South,186,3.0,12.0,73,0.00,,,0.15,,2013-06-26 23:02:00,
2013-06-26 19:11:00,78.0,69.0,29.69,South,186,3.0,12.0,73,0.00,,,0.15,,2013-06-26 23:11:00,
2013-06-26 19:22:00,78.0,69.0,29.69,South,186,3.0,12.0,73,0.00,,,0.15,,2013-06-26 23:22:00,
2013-06-26 19:34:00,75.0,68.0,29.69,SW,219,5.0,12.0,79,0.00,,,0.15,,2013-06-26 23:34:00,
2013-06-26 19:43:00,76.0,68.0,29.70,SSW,195,7.0,11.0,76,0.00,,,0.15,,2013-06-26 23:43:00,
2013-06-26 19:53:00,76.0,68.0,29.70,SSW,195,7.0,11.0,76,0.00,,,0.15,,2013-06-26 23:53:00,
2013-06-26 20:01:00,76.0,68.0,29.70,SW,225,2.0,7.0,76,0.00,,,0.15,,2013-06-27 00:01:00,
2013-06-26 20:12:00,75.0,68.0,29.72,West,269,1.0,5.0,80,0.00,,,0.15,,2013-06-27 00:12:00,
2013-06-26 20:22:00,75.0,68.0,29.72,West,269,1.0,5.0,80,0.00,,,0.15,,2013-06-27 00:22:00,
2013-06-26 20:33:00,75.0,69.0,29.72,SW,233,4.0,9.0,82,0.00,,,0.15,,2013-06-27 00:33:00,
2013-06-26 20:43:00,75.0,69.0,29.72,SW,233,4.0,9.0,82,0.00,,,0.15,,2013-06-27 00:43:00,
2013-06-26 20:53:00,74.0,69.0,29.71,West,280,0.0,4.0,84,0.00,,,0.15,,2013-06-27 00:53:00,
2013-06-26 21:01:00,74.0,69.0,29.71,West,280,0.0,4.0,84,0.00,,,0.15,,2013-06-27 01:01:00,
2013-06-26 21:11:00,74.0,69.0,29.71,West,280,0.0,4.0,84,0.00,,,0.15,,2013-06-27 01:11:00,
2013-06-26 21:22:00,74.0,69.0,29.71,WSW,252,0.0,1.0,84,0.00,,,0.15,,2013-06-27 01:22:00,
2013-06-26 21:32:00,74.0,69.0,29.71,WSW,252,0.0,1.0,84,0.00,,,0.15,,2013-06-27 01:32:00,
2013-06-26 21:43:00,74.0,69.0,29.71,WSW,252,0.0,1.0,84,0.00,,,0.15,,2013-06-27 01:43:00,
2013-06-26 21:53:00,74.0,70.0,29.72,SSE,150,2.0,4.0,87,0.00,,,0.15,,2013-06-27 01:53:00,
2013-06-26 22:01:00,74.0,70.0,29.72,SSE,150,2.0,4.0,87,0.00,,,0.15,,2013-06-27 02:01:00,
2013-06-26 22:11:00,74.0,70.0,29.72,SSE,150,2.0,4.0,87,0.00,,,0.15,,2013-06-27 02:11:00,
2013-06-26 22:32:00,74.0,70.0,29.71,SSE,160,4.0,7.0,88,0.00,,,0.15,,2013-06-27 02:32:00,
2013-06-26 22:42:00,74.0,70.0,29.71,SSE,160,4.0,7.0,88,0.00,,,0.15,,2013-06-27 02:42:00,
2013-06-26 22:52:00,74.0,70.0,29.71,SSE,160,4.0,7.0,88,0.00,,,0.15,,2013-06-27 02:52:00,
2013-06-26 23:02:00,74.0,70.0,29.71,SSE,160,4.0,7.0,88,0.00,,,0.15,,2013-06-27 03:02:00,
2013-06-26 23:21:00,71.0,69.0,29.69,East,79,2.0,3.0,93,0.02,,,0.17,,2013-06-27 03:21:00,
2013-06-26 23:33:00,71.0,69.0,29.69,East,79,2.0,3.0,93,0.02,,,0.17,,2013-06-27 03:33:00,
2013-06-26 23:42:00,71.0,69.0,29.69,East,79,2.0,3.0,93,0.02,,,0.17,,2013-06-27 03:42:00,